sensor_id;sensor_type;location;lat;lon;timestamp;P1;durP1;ratioP1;P2;durP2;ratioP2
43962;SDS011;29622;45.534;9.242;2023-03-01T00:02:25;49.72;;;23.08;;
43962;SDS011;29622;45.534;9.242;2023-03-01T00:07:26;44.53;;;22.70;;
43962;SDS011;29622;45.534;9.242;2023-03-01T00:12:26;49.22;;;22.67;;
43962;SDS011;29622;45.534;9.242;2023-03-01T00:17:27;52.03;;;23.08;;
43962;SDS011;29622;45.534;9.242;2023-03-01T00:22:28;48.00;;;23.65;;
43962;SDS011;29622;45.534;9.242;2023-03-01T00:27:29;35.28;;;15.35;;
43962;SDS011;29622;45.534;9.242;2023-03-01T00:32:30;36.22;;;15.57;;
43962;SDS011;29622;45.534;9.242;2023-03-01T00:37:31;38.13;;;19.95;;
43962;SDS011;29622;45.534;9.242;2023-03-01T00:42:31;41.45;;;19.13;;
43962;SDS011;29622;45.534;9.242;2023-03-01T00:47:32;37.72;;;17.67;;
43962;SDS011;29622;45.534;9.242;2023-03-01T00:52:32;41.85;;;20.50;;
43962;SDS011;29622;45.534;9.242;2023-03-01T00:57:33;44.03;;;20.08;;
43962;SDS011;29622;45.534;9.242;2023-03-01T01:02:34;43.92;;;19.80;;
43962;SDS011;29622;45.534;9.242;2023-03-01T01:07:35;41.17;;;20.60;;
43962;SDS011;29622;45.534;9.242;2023-03-01T01:12:36;44.25;;;20.83;;
43962;SDS011;29622;45.534;9.242;2023-03-01T01:17:37;43.38;;;22.02;;
43962;SDS011;29622;45.534;9.242;2023-03-01T01:22:38;41.45;;;19.13;;
43962;SDS011;29622;45.534;9.242;2023-03-01T01:27:38;38.83;;;19.30;;
43962;SDS011;29622;45.534;9.242;2023-03-01T01:32:39;40.72;;;19.55;;
43962;SDS011;29622;45.534;9.242;2023-03-01T01:37:40;34.63;;;18.50;;
43962;SDS011;29622;45.534;9.242;2023-03-01T01:42:40;36.58;;;19.15;;
43962;SDS011;29622;45.534;9.242;2023-03-01T01:47:41;37.20;;;18.88;;
43962;SDS011;29622;45.534;9.242;2023-03-01T01:52:41;33.35;;;18.52;;
43962;SDS011;29622;45.534;9.242;2023-03-01T01:57:47;40.90;;;19.25;;
43962;SDS011;29622;45.534;9.242;2023-03-01T02:02:53;31.23;;;16.33;;
43962;SDS011;29622;45.534;9.242;2023-03-01T02:07:57;31.05;;;17.58;;
43962;SDS011;29622;45.534;9.242;2023-03-01T02:12:59;35.10;;;16.85;;
43962;SDS011;29622;45.534;9.242;2023-03-01T02:18:01;35.65;;;17.70;;
43962;SDS011;29622;45.534;9.242;2023-03-01T02:23:03;42.63;;;18.48;;
43962;SDS011;29622;45.534;9.242;2023-03-01T02:33:16;35.10;;;17.88;;
43962;SDS011;29622;45.534;9.242;2023-03-01T02:38:17;33.65;;;17.90;;
43962;SDS011;29622;45.534;9.242;2023-03-01T02:43:18;35.40;;;17.80;;
43962;SDS011;29622;45.534;9.242;2023-03-01T02:48:21;36.20;;;17.83;;
43962;SDS011;29622;45.534;9.242;2023-03-01T02:53:24;29.45;;;15.57;;
43962;SDS011;29622;45.534;9.242;2023-03-01T02:58:54;37.90;;;17.08;;
43962;SDS011;29622;45.534;9.242;2023-03-01T03:04:01;37.35;;;18.52;;
43962;SDS011;29622;45.534;9.242;2023-03-01T03:09:03;35.40;;;17.33;;
43962;SDS011;29622;45.534;9.242;2023-03-01T03:14:05;32.05;;;16.50;;
43962;SDS011;29622;45.534;9.242;2023-03-01T03:19:06;37.22;;;16.95;;
43962;SDS011;29622;45.534;9.242;2023-03-01T03:24:06;33.80;;;16.25;;
43962;SDS011;29622;45.534;9.242;2023-03-01T03:29:08;30.65;;;16.63;;
43962;SDS011;29622;45.534;9.242;2023-03-01T03:34:09;32.67;;;17.35;;
43962;SDS011;29622;45.534;9.242;2023-03-01T03:39:17;32.92;;;17.50;;
43962;SDS011;29622;45.534;9.242;2023-03-01T03:44:18;35.03;;;18.02;;
43962;SDS011;29622;45.534;9.242;2023-03-01T03:49:19;37.08;;;17.25;;
43962;SDS011;29622;45.534;9.242;2023-03-01T03:54:20;31.95;;;16.63;;
43962;SDS011;29622;45.534;9.242;2023-03-01T03:59:20;31.40;;;16.65;;
43962;SDS011;29622;45.534;9.242;2023-03-01T04:04:21;32.88;;;16.85;;
43962;SDS011;29622;45.534;9.242;2023-03-01T04:09:22;37.53;;;17.17;;
43962;SDS011;29622;45.534;9.242;2023-03-01T04:14:22;36.03;;;17.45;;
43962;SDS011;29622;45.534;9.242;2023-03-01T04:19:23;35.65;;;17.67;;
43962;SDS011;29622;45.534;9.242;2023-03-01T04:24:23;37.42;;;18.63;;
43962;SDS011;29622;45.534;9.242;2023-03-01T04:29:24;36.67;;;17.48;;
43962;SDS011;29622;45.534;9.242;2023-03-01T04:34:25;35.58;;;17.80;;
43962;SDS011;29622;45.534;9.242;2023-03-01T04:39:26;36.67;;;18.38;;
43962;SDS011;29622;45.534;9.242;2023-03-01T04:44:27;36.88;;;19.45;;
43962;SDS011;29622;45.534;9.242;2023-03-01T04:49:28;35.67;;;16.85;;
43962;SDS011;29622;45.534;9.242;2023-03-01T04:54:29;39.05;;;19.27;;
43962;SDS011;29622;45.534;9.242;2023-03-01T04:59:32;37.58;;;17.60;;
43962;SDS011;29622;45.534;9.242;2023-03-01T05:04:33;43.30;;;18.40;;
43962;SDS011;29622;45.534;9.242;2023-03-01T05:09:33;43.05;;;19.33;;
43962;SDS011;29622;45.534;9.242;2023-03-01T05:14:34;37.28;;;17.90;;
43962;SDS011;29622;45.534;9.242;2023-03-01T05:19:35;40.63;;;19.58;;
43962;SDS011;29622;45.534;9.242;2023-03-01T05:24:35;47.10;;;19.85;;
43962;SDS011;29622;45.534;9.242;2023-03-01T05:29:36;43.85;;;19.23;;
43962;SDS011;29622;45.534;9.242;2023-03-01T05:34:39;44.45;;;19.75;;
43962;SDS011;29622;45.534;9.242;2023-03-01T05:39:40;42.00;;;18.85;;
43962;SDS011;29622;45.534;9.242;2023-03-01T05:44:41;46.60;;;21.42;;
43962;SDS011;29622;45.534;9.242;2023-03-01T05:49:42;45.08;;;20.95;;
43962;SDS011;29622;45.534;9.242;2023-03-01T05:54:43;44.40;;;20.42;;
43962;SDS011;29622;45.534;9.242;2023-03-01T05:59:43;41.72;;;21.17;;
43962;SDS011;29622;45.534;9.242;2023-03-01T06:04:45;43.25;;;20.25;;
43962;SDS011;29622;45.534;9.242;2023-03-01T06:09:45;47.63;;;20.17;;
43962;SDS011;29622;45.534;9.242;2023-03-01T06:14:46;42.58;;;20.63;;
43962;SDS011;29622;45.534;9.242;2023-03-01T06:19:49;49.45;;;21.42;;
43962;SDS011;29622;45.534;9.242;2023-03-01T06:24:50;42.78;;;19.85;;
43962;SDS011;29622;45.534;9.242;2023-03-01T06:29:51;46.03;;;21.15;;
43962;SDS011;29622;45.534;9.242;2023-03-01T06:34:51;45.88;;;21.98;;
43962;SDS011;29622;45.534;9.242;2023-03-01T06:39:52;48.05;;;21.52;;
43962;SDS011;29622;45.534;9.242;2023-03-01T06:44:52;43.78;;;21.20;;
43962;SDS011;29622;45.534;9.242;2023-03-01T06:49:53;39.40;;;19.80;;
43962;SDS011;29622;45.534;9.242;2023-03-01T06:54:54;42.85;;;20.25;;
43962;SDS011;29622;45.534;9.242;2023-03-01T06:59:54;41.90;;;19.40;;
43962;SDS011;29622;45.534;9.242;2023-03-01T07:04:55;42.28;;;19.38;;
43962;SDS011;29622;45.534;9.242;2023-03-01T07:09:56;44.08;;;20.38;;
43962;SDS011;29622;45.534;9.242;2023-03-01T07:14:57;46.97;;;20.30;;
43962;SDS011;29622;45.534;9.242;2023-03-01T07:19:57;38.20;;;18.88;;
43962;SDS011;29622;45.534;9.242;2023-03-01T07:24:58;42.88;;;17.55;;
43962;SDS011;29622;45.534;9.242;2023-03-01T07:30:03;36.22;;;15.88;;
43962;SDS011;29622;45.534;9.242;2023-03-01T07:35:07;36.22;;;16.58;;
43962;SDS011;29622;45.534;9.242;2023-03-01T07:40:08;32.58;;;17.55;;
43962;SDS011;29622;45.534;9.242;2023-03-01T07:45:10;34.20;;;16.73;;
43962;SDS011;29622;45.534;9.242;2023-03-01T07:50:15;26.33;;;11.13;;
43962;SDS011;29622;45.534;9.242;2023-03-01T07:55:17;27.77;;;12.63;;
43962;SDS011;29622;45.534;9.242;2023-03-01T08:00:18;29.25;;;11.90;;
43962;SDS011;29622;45.534;9.242;2023-03-01T08:05:19;27.95;;;11.95;;
43962;SDS011;29622;45.534;9.242;2023-03-01T08:10:22;32.08;;;11.02;;
43962;SDS011;29622;45.534;9.242;2023-03-01T08:15:23;23.50;;;11.68;;
43962;SDS011;29622;45.534;9.242;2023-03-01T08:20:24;23.85;;;12.85;;
43962;SDS011;29622;45.534;9.242;2023-03-01T08:25:25;22.67;;;11.70;;
43962;SDS011;29622;45.534;9.242;2023-03-01T08:30:26;24.02;;;12.05;;
43962;SDS011;29622;45.534;9.242;2023-03-01T08:35:27;28.48;;;13.38;;
43962;SDS011;29622;45.534;9.242;2023-03-01T08:40:28;36.05;;;15.35;;
43962;SDS011;29622;45.534;9.242;2023-03-01T08:45:32;36.30;;;15.23;;
43962;SDS011;29622;45.534;9.242;2023-03-01T08:50:33;27.85;;;14.10;;
43962;SDS011;29622;45.534;9.242;2023-03-01T08:55:35;24.77;;;12.65;;
43962;SDS011;29622;45.534;9.242;2023-03-01T09:00:36;23.38;;;11.77;;
43962;SDS011;29622;45.534;9.242;2023-03-01T09:05:38;24.85;;;11.82;;
43962;SDS011;29622;45.534;9.242;2023-03-01T09:10:39;19.17;;;7.03;;
43962;SDS011;29622;45.534;9.242;2023-03-01T09:15:40;23.60;;;11.57;;
43962;SDS011;29622;45.534;9.242;2023-03-01T09:20:40;18.38;;;9.30;;
43962;SDS011;29622;45.534;9.242;2023-03-01T09:25:42;26.08;;;13.65;;
43962;SDS011;29622;45.534;9.242;2023-03-01T09:30:46;27.98;;;13.75;;
43962;SDS011;29622;45.534;9.242;2023-03-01T09:35:47;31.77;;;14.55;;
43962;SDS011;29622;45.534;9.242;2023-03-01T09:40:48;33.63;;;14.50;;
43962;SDS011;29622;45.534;9.242;2023-03-01T09:45:50;42.83;;;16.17;;
43962;SDS011;29622;45.534;9.242;2023-03-01T09:50:53;28.77;;;10.85;;
43962;SDS011;29622;45.534;9.242;2023-03-01T10:01:23;35.58;;;15.82;;
43962;SDS011;29622;45.534;9.242;2023-03-01T10:07:07;29.60;;;15.18;;
43962;SDS011;29622;45.534;9.242;2023-03-01T10:12:12;26.73;;;12.52;;
43962;SDS011;29622;45.534;9.242;2023-03-01T10:22:29;31.75;;;12.68;;
43962;SDS011;29622;45.534;9.242;2023-03-01T10:32:51;36.47;;;17.35;;
43962;SDS011;29622;45.534;9.242;2023-03-01T10:38:04;27.85;;;12.73;;
43962;SDS011;29622;45.534;9.242;2023-03-01T10:43:10;28.90;;;13.02;;
43962;SDS011;29622;45.534;9.242;2023-03-01T10:48:14;22.40;;;11.15;;
43962;SDS011;29622;45.534;9.242;2023-03-01T10:53:39;26.27;;;12.80;;
43962;SDS011;29622;45.534;9.242;2023-03-01T10:59:02;23.10;;;11.18;;
43962;SDS011;29622;45.534;9.242;2023-03-01T11:09:18;26.60;;;12.18;;
43962;SDS011;29622;45.534;9.242;2023-03-01T11:14:24;28.88;;;13.98;;
43962;SDS011;29622;45.534;9.242;2023-03-01T11:19:33;28.45;;;14.15;;
43962;SDS011;29622;45.534;9.242;2023-03-01T11:24:45;33.55;;;13.82;;
43962;SDS011;29622;45.534;9.242;2023-03-01T11:30:03;25.75;;;13.70;;
43962;SDS011;29622;45.534;9.242;2023-03-01T11:35:17;19.67;;;10.82;;
43962;SDS011;29622;45.534;9.242;2023-03-01T11:40:25;29.45;;;14.57;;
43962;SDS011;29622;45.534;9.242;2023-03-01T11:45:31;31.90;;;15.38;;
43962;SDS011;29622;45.534;9.242;2023-03-01T11:50:47;32.10;;;17.13;;
43962;SDS011;29622;45.534;9.242;2023-03-01T12:27:19;29.88;;;14.18;;
43962;SDS011;29622;45.534;9.242;2023-03-01T12:32:47;25.33;;;13.32;;
43962;SDS011;29622;45.534;9.242;2023-03-01T12:48:34;32.92;;;14.95;;
43962;SDS011;29622;45.534;9.242;2023-03-01T12:53:53;29.65;;;13.10;;
43962;SDS011;29622;45.534;9.242;2023-03-01T13:04:16;28.80;;;14.63;;
43962;SDS011;29622;45.534;9.242;2023-03-01T13:09:40;31.60;;;13.38;;
43962;SDS011;29622;45.534;9.242;2023-03-01T13:14:49;27.17;;;13.88;;
43962;SDS011;29622;45.534;9.242;2023-03-01T13:19:57;22.95;;;12.82;;
43962;SDS011;29622;45.534;9.242;2023-03-01T13:25:15;26.73;;;11.27;;
43962;SDS011;29622;45.534;9.242;2023-03-01T13:35:41;25.38;;;13.00;;
43962;SDS011;29622;45.534;9.242;2023-03-01T13:45:45;27.40;;;13.40;;
43962;SDS011;29622;45.534;9.242;2023-03-01T13:51:03;13.18;;;6.65;;
43962;SDS011;29622;45.534;9.242;2023-03-01T13:56:15;30.77;;;15.25;;
43962;SDS011;29622;45.534;9.242;2023-03-01T14:01:21;28.95;;;14.48;;
43962;SDS011;29622;45.534;9.242;2023-03-01T14:06:27;27.05;;;15.10;;
43962;SDS011;29622;45.534;9.242;2023-03-01T14:22:21;31.48;;;15.32;;
43962;SDS011;29622;45.534;9.242;2023-03-01T14:27:37;13.02;;;5.80;;
43962;SDS011;29622;45.534;9.242;2023-03-01T14:32:42;20.77;;;11.13;;
43962;SDS011;29622;45.534;9.242;2023-03-01T14:37:43;28.50;;;15.48;;
43962;SDS011;29622;45.534;9.242;2023-03-01T14:42:47;24.50;;;13.32;;
43962;SDS011;29622;45.534;9.242;2023-03-01T14:47:50;26.15;;;13.48;;
43962;SDS011;29622;45.534;9.242;2023-03-01T14:52:52;28.75;;;14.85;;
43962;SDS011;29622;45.534;9.242;2023-03-01T14:57:58;30.73;;;16.10;;
43962;SDS011;29622;45.534;9.242;2023-03-01T15:03:05;29.70;;;15.95;;
43962;SDS011;29622;45.534;9.242;2023-03-01T15:08:19;30.63;;;15.15;;
43962;SDS011;29622;45.534;9.242;2023-03-01T15:13:28;27.30;;;14.40;;
43962;SDS011;29622;45.534;9.242;2023-03-01T15:18:34;22.92;;;10.32;;
43962;SDS011;29622;45.534;9.242;2023-03-01T15:23:37;27.73;;;14.55;;
43962;SDS011;29622;45.534;9.242;2023-03-01T15:28:41;24.70;;;14.85;;
43962;SDS011;29622;45.534;9.242;2023-03-01T15:38:54;26.27;;;13.25;;
43962;SDS011;29622;45.534;9.242;2023-03-01T15:43:57;22.35;;;12.32;;
43962;SDS011;29622;45.534;9.242;2023-03-01T15:49:01;29.83;;;12.65;;
43962;SDS011;29622;45.534;9.242;2023-03-01T15:54:05;29.70;;;14.45;;
43962;SDS011;29622;45.534;9.242;2023-03-01T15:59:13;24.33;;;12.25;;
43962;SDS011;29622;45.534;9.242;2023-03-01T16:04:15;29.25;;;14.48;;
43962;SDS011;29622;45.534;9.242;2023-03-01T16:09:23;34.72;;;16.25;;
43962;SDS011;29622;45.534;9.242;2023-03-01T16:14:24;27.73;;;13.70;;
43962;SDS011;29622;45.534;9.242;2023-03-01T16:19:25;34.20;;;18.17;;
43962;SDS011;29622;45.534;9.242;2023-03-01T16:24:41;40.88;;;16.85;;
43962;SDS011;29622;45.534;9.242;2023-03-01T16:29:44;29.35;;;12.70;;
43962;SDS011;29622;45.534;9.242;2023-03-01T16:34:45;29.63;;;14.43;;
43962;SDS011;29622;45.534;9.242;2023-03-01T16:39:49;30.75;;;15.93;;
43962;SDS011;29622;45.534;9.242;2023-03-01T16:44:54;29.60;;;13.65;;
43962;SDS011;29622;45.534;9.242;2023-03-01T16:49:58;38.03;;;16.23;;
43962;SDS011;29622;45.534;9.242;2023-03-01T17:00:45;30.73;;;14.90;;
43962;SDS011;29622;45.534;9.242;2023-03-01T17:05:46;31.75;;;15.48;;
43962;SDS011;29622;45.534;9.242;2023-03-01T17:10:47;28.25;;;14.95;;
43962;SDS011;29622;45.534;9.242;2023-03-01T17:15:57;18.95;;;9.57;;
43962;SDS011;29622;45.534;9.242;2023-03-01T17:20:58;23.88;;;12.25;;
43962;SDS011;29622;45.534;9.242;2023-03-01T17:25:59;18.70;;;9.15;;
43962;SDS011;29622;45.534;9.242;2023-03-01T17:31:04;25.42;;;9.10;;
43962;SDS011;29622;45.534;9.242;2023-03-01T17:36:07;18.77;;;11.35;;
43962;SDS011;29622;45.534;9.242;2023-03-01T17:41:07;12.32;;;6.13;;
43962;SDS011;29622;45.534;9.242;2023-03-01T17:46:11;13.68;;;7.72;;
43962;SDS011;29622;45.534;9.242;2023-03-01T17:51:17;20.13;;;10.45;;
43962;SDS011;29622;45.534;9.242;2023-03-01T17:56:21;23.63;;;11.43;;
43962;SDS011;29622;45.534;9.242;2023-03-01T18:01:41;29.23;;;16.38;;
43962;SDS011;29622;45.534;9.242;2023-03-01T18:06:50;30.38;;;13.70;;
43962;SDS011;29622;45.534;9.242;2023-03-01T18:12:04;33.65;;;17.13;;
43962;SDS011;29622;45.534;9.242;2023-03-01T18:22:15;27.67;;;14.70;;
43962;SDS011;29622;45.534;9.242;2023-03-01T18:27:16;31.70;;;12.15;;
43962;SDS011;29622;45.534;9.242;2023-03-01T18:32:17;25.70;;;13.02;;
43962;SDS011;29622;45.534;9.242;2023-03-01T18:37:18;29.08;;;14.63;;
43962;SDS011;29622;45.534;9.242;2023-03-01T18:42:19;31.13;;;14.98;;
43962;SDS011;29622;45.534;9.242;2023-03-01T18:47:21;25.65;;;12.73;;
43962;SDS011;29622;45.534;9.242;2023-03-01T18:52:22;25.35;;;12.57;;
43962;SDS011;29622;45.534;9.242;2023-03-01T18:57:23;17.02;;;10.15;;
43962;SDS011;29622;45.534;9.242;2023-03-01T19:02:24;27.13;;;14.07;;
43962;SDS011;29622;45.534;9.242;2023-03-01T19:07:25;23.05;;;13.32;;
43962;SDS011;29622;45.534;9.242;2023-03-01T19:12:26;26.33;;;14.63;;
43962;SDS011;29622;45.534;9.242;2023-03-01T19:17:27;23.05;;;11.65;;
43962;SDS011;29622;45.534;9.242;2023-03-01T19:22:30;19.92;;;11.15;;
43962;SDS011;29622;45.534;9.242;2023-03-01T19:27:30;22.05;;;13.15;;
43962;SDS011;29622;45.534;9.242;2023-03-01T19:32:31;25.00;;;12.70;;
43962;SDS011;29622;45.534;9.242;2023-03-01T19:37:33;25.13;;;12.10;;
43962;SDS011;29622;45.534;9.242;2023-03-01T19:42:34;18.02;;;11.25;;
43962;SDS011;29622;45.534;9.242;2023-03-01T19:47:34;18.90;;;10.27;;
43962;SDS011;29622;45.534;9.242;2023-03-01T19:52:35;17.50;;;10.93;;
43962;SDS011;29622;45.534;9.242;2023-03-01T19:57:36;18.73;;;11.50;;
43962;SDS011;29622;45.534;9.242;2023-03-01T20:02:36;17.08;;;10.30;;
43962;SDS011;29622;45.534;9.242;2023-03-01T20:07:37;16.60;;;10.30;;
43962;SDS011;29622;45.534;9.242;2023-03-01T20:12:37;19.67;;;9.73;;
43962;SDS011;29622;45.534;9.242;2023-03-01T20:17:38;21.10;;;11.45;;
43962;SDS011;29622;45.534;9.242;2023-03-01T20:22:39;18.48;;;9.02;;
43962;SDS011;29622;45.534;9.242;2023-03-01T20:27:39;21.65;;;10.40;;
43962;SDS011;29622;45.534;9.242;2023-03-01T20:32:40;18.45;;;8.65;;
43962;SDS011;29622;45.534;9.242;2023-03-01T20:37:41;22.85;;;13.55;;
43962;SDS011;29622;45.534;9.242;2023-03-01T20:42:42;21.70;;;12.60;;
43962;SDS011;29622;45.534;9.242;2023-03-01T20:47:42;17.48;;;10.98;;
43962;SDS011;29622;45.534;9.242;2023-03-01T20:52:43;22.35;;;11.98;;
43962;SDS011;29622;45.534;9.242;2023-03-01T20:57:44;23.20;;;12.32;;
43962;SDS011;29622;45.534;9.242;2023-03-01T21:02:45;23.63;;;12.60;;
43962;SDS011;29622;45.534;9.242;2023-03-01T21:07:45;22.70;;;12.93;;
43962;SDS011;29622;45.534;9.242;2023-03-01T21:12:46;28.73;;;12.40;;
43962;SDS011;29622;45.534;9.242;2023-03-01T21:17:46;28.50;;;13.15;;
43962;SDS011;29622;45.534;9.242;2023-03-01T21:22:47;20.85;;;12.55;;
43962;SDS011;29622;45.534;9.242;2023-03-01T21:27:48;21.63;;;12.30;;
43962;SDS011;29622;45.534;9.242;2023-03-01T21:32:48;22.75;;;12.85;;
43962;SDS011;29622;45.534;9.242;2023-03-01T21:37:49;22.48;;;12.27;;
43962;SDS011;29622;45.534;9.242;2023-03-01T21:42:50;24.38;;;13.70;;
43962;SDS011;29622;45.534;9.242;2023-03-01T21:47:50;22.95;;;12.32;;
43962;SDS011;29622;45.534;9.242;2023-03-01T21:53:17;24.10;;;12.75;;
43962;SDS011;29622;45.534;9.242;2023-03-01T21:58:18;21.75;;;13.10;;
43962;SDS011;29622;45.534;9.242;2023-03-01T22:03:19;29.30;;;15.40;;
43962;SDS011;29622;45.534;9.242;2023-03-01T22:08:20;25.67;;;13.77;;
43962;SDS011;29622;45.534;9.242;2023-03-01T22:13:21;23.48;;;13.63;;
43962;SDS011;29622;45.534;9.242;2023-03-01T22:18:22;22.25;;;12.57;;
43962;SDS011;29622;45.534;9.242;2023-03-01T22:23:22;26.33;;;13.68;;
43962;SDS011;29622;45.534;9.242;2023-03-01T22:28:23;22.70;;;12.95;;
43962;SDS011;29622;45.534;9.242;2023-03-01T22:33:24;24.17;;;13.48;;
43962;SDS011;29622;45.534;9.242;2023-03-01T22:38:24;25.15;;;13.63;;
43962;SDS011;29622;45.534;9.242;2023-03-01T22:43:25;20.52;;;12.10;;
43962;SDS011;29622;45.534;9.242;2023-03-01T22:48:26;25.60;;;12.73;;
43962;SDS011;29622;45.534;9.242;2023-03-01T22:53:26;23.17;;;12.05;;
43962;SDS011;29622;45.534;9.242;2023-03-01T22:58:27;21.73;;;11.75;;
43962;SDS011;29622;45.534;9.242;2023-03-01T23:03:28;32.20;;;14.32;;
43962;SDS011;29622;45.534;9.242;2023-03-01T23:08:28;25.67;;;14.35;;
43962;SDS011;29622;45.534;9.242;2023-03-01T23:13:29;25.58;;;15.02;;
43962;SDS011;29622;45.534;9.242;2023-03-01T23:18:29;27.30;;;15.27;;
43962;SDS011;29622;45.534;9.242;2023-03-01T23:23:30;23.35;;;14.57;;
43962;SDS011;29622;45.534;9.242;2023-03-01T23:28:32;27.98;;;14.95;;
43962;SDS011;29622;45.534;9.242;2023-03-01T23:33:33;26.58;;;14.93;;
43962;SDS011;29622;45.534;9.242;2023-03-01T23:38:36;28.45;;;15.25;;
43962;SDS011;29622;45.534;9.242;2023-03-01T23:43:37;29.00;;;15.80;;
43962;SDS011;29622;45.534;9.242;2023-03-01T23:48:38;27.17;;;16.25;;
43962;SDS011;29622;45.534;9.242;2023-03-01T23:53:44;29.10;;;16.92;;
43962;SDS011;29622;45.534;9.242;2023-03-01T23:58:53;29.95;;;16.05;;
